Time;durP1;ratioP1;P1;durP2;ratioP2;P2;SDS_P1;SDS_P2;PMS_P1;PMS_P2;Temp;Humidity;BMP_temperature;BMP_pressure;BME280_temperature;BME280_humidity;BME280_pressure;Samples;Min_cycle;Max_cycle;Signal;HPM_P1;HPM_P2
2023/07/24 00:02:13;;;;;;;20.13;9.30;;;;;;;;;;4988323;28;20076;-78
2023/07/24 00:04:38;;;;;;;17.90;9.25;;;;;;;;;;4988749;28;20038;-77
2023/07/24 00:07:03;;;;;;;18.33;9.35;;;;;;;;;;4956738;28;20052;-78
2023/07/24 00:09:29;;;;;;;15.73;8.27;;;;;;;;;;4889134;28;20050;-77
2023/07/24 00:11:54;;;;;;;14.60;8.20;;;;;;;;;;4961956;28;20030;-77
2023/07/24 00:14:20;;;;;;;16.05;8.85;;;;;;;;;;4962409;28;20043;-77
2023/07/24 00:16:45;;;;;;;14.48;7.90;;;;;;;;;;4982415;28;20066;-78
2023/07/24 00:19:10;;;;;;;13.35;7.85;;;;;;;;;;4987026;28;20415;-77
2023/07/24 00:21:35;;;;;;;14.90;8.02;;;;;;;;;;4988820;28;20419;-78
2023/07/24 00:24:01;;;;;;;14.30;8.48;;;;;;;;;;5002190;28;20031;-77
2023/07/24 00:26:26;;;;;;;13.07;8.25;;;;;;;;;;5006961;28;20035;-78
2023/07/24 00:28:51;;;;;;;16.67;8.82;;;;;;;;;;4990503;28;20319;-78
2023/07/24 00:31:17;;;;;;;14.52;8.00;;;;;;;;;;4968633;28;20134;-78
2023/07/24 00:33:42;;;;;;;10.88;6.97;;;;;;;;;;4966643;28;20777;-77
2023/07/24 00:36:07;;;;;;;14.13;7.90;;;;;;;;;;4966186;28;20030;-77
2023/07/24 00:38:33;;;;;;;12.35;7.25;;;;;;;;;;4988472;28;20030;-78
2023/07/24 00:40:58;;;;;;;14.55;7.72;;;;;;;;;;4989303;28;20037;-78
2023/07/24 00:43:23;;;;;;;15.50;7.20;;;;;;;;;;4989781;28;20054;-77
2023/07/24 00:45:49;;;;;;;16.08;8.02;;;;;;;;;;4987803;28;20034;-77
2023/07/24 00:48:14;;;;;;;13.82;7.38;;;;;;;;;;4991211;28;20092;-77
2023/07/24 00:50:42;;;;;;;11.38;7.00;;;;;;;;;;4994015;28;20031;-77
2023/07/24 00:53:07;;;;;;;13.25;7.82;;;;;;;;;;4989428;28;20042;-78
2023/07/24 00:55:33;;;;;;;14.82;7.15;;;;;;;;;;4992759;28;20329;-78
2023/07/24 00:57:59;;;;;;;13.15;6.90;;;;;;;;;;4992038;28;20070;-78
2023/07/24 01:00:25;;;;;;;12.48;6.97;;;;;;;;;;4992408;28;20034;-77
2023/07/24 01:02:51;;;;;;;13.43;7.13;;;;;;;;;;5004781;28;20034;-78
2023/07/24 01:05:17;;;;;;;15.20;7.65;;;;;;;;;;4984792;28;20510;-77
2023/07/24 01:07:42;;;;;;;20.25;6.45;;;;;;;;;;5009180;28;20038;-78
2023/07/24 01:10:08;;;;;;;10.88;6.93;;;;;;;;;;4990546;28;20409;-77
2023/07/24 01:12:40;;;;;;;13.88;7.10;;;;;;;;;;4992893;28;20038;-78
2023/07/24 01:15:23;;;;;;;11.30;7.13;;;;;;;;;;4990497;28;20029;-77
2023/07/24 01:17:53;;;;;;;12.27;7.28;;;;;;;;;;4991644;28;20387;-78
2023/07/24 01:20:19;;;;;;;11.05;6.82;;;;;;;;;;4992048;28;20525;-78
2023/07/24 01:23:02;;;;;;;11.27;6.05;;;;;;;;;;4989021;28;20038;-79
2023/07/24 01:25:32;;;;;;;14.50;7.15;;;;;;;;;;4988765;28;20451;-76
2023/07/24 01:27:57;;;;;;;10.88;6.65;;;;;;;;;;4988042;28;20041;-76
2023/07/24 01:30:23;;;;;;;9.98;6.97;;;;;;;;;;4999511;28;20038;-77
2023/07/24 01:32:48;;;;;;;12.18;7.00;;;;;;;;;;5003805;28;20687;-76
2023/07/24 01:35:14;;;;;;;16.23;7.25;;;;;;;;;;4986971;28;20030;-76
2023/07/24 01:37:40;;;;;;;13.25;7.25;;;;;;;;;;4985192;28;20102;-76
2023/07/24 01:40:10;;;;;;;11.25;7.13;;;;;;;;;;4989702;28;20119;-76
2023/07/24 01:42:35;;;;;;;12.35;6.90;;;;;;;;;;4987556;28;20088;-76
2023/07/24 01:45:03;;;;;;;10.75;6.55;;;;;;;;;;4999451;28;20030;-76
2023/07/24 01:47:29;;;;;;;9.25;6.47;;;;;;;;;;4899131;28;20667;-76
2023/07/24 01:49:55;;;;;;;12.25;7.35;;;;;;;;;;4960710;28;20058;-76
2023/07/24 01:52:20;;;;;;;10.80;6.68;;;;;;;;;;4986221;28;20542;-76
2023/07/24 01:54:46;;;;;;;10.25;7.03;;;;;;;;;;5000071;28;20027;-78
2023/07/24 01:57:11;;;;;;;10.25;6.47;;;;;;;;;;4989730;28;20546;-78
2023/07/24 01:59:36;;;;;;;12.15;7.03;;;;;;;;;;4991220;28;20034;-78
2023/07/24 02:02:01;;;;;;;14.27;6.82;;;;;;;;;;4987647;28;20046;-76
2023/07/24 02:04:27;;;;;;;10.88;6.85;;;;;;;;;;5001962;28;20527;-78
2023/07/24 02:06:52;;;;;;;11.75;6.78;;;;;;;;;;5001742;28;20046;-75
2023/07/24 02:09:18;;;;;;;12.23;7.07;;;;;;;;;;4981918;28;20027;-76
2023/07/24 02:11:44;;;;;;;15.63;7.70;;;;;;;;;;4988933;28;20787;-76
2023/07/24 02:14:11;;;;;;;10.73;6.70;;;;;;;;;;4985947;28;20031;-79
2023/07/24 02:16:37;;;;;;;12.38;6.97;;;;;;;;;;4981068;28;20046;-77
2023/07/24 02:19:02;;;;;;;14.13;7.10;;;;;;;;;;4982863;28;20038;-75
2023/07/24 02:21:27;;;;;;;10.80;6.35;;;;;;;;;;4989254;28;20050;-77
2023/07/24 02:23:53;;;;;;;13.45;7.18;;;;;;;;;;4987588;28;20026;-76
2023/07/24 02:26:18;;;;;;;11.27;6.47;;;;;;;;;;4985180;28;20054;-77
2023/07/24 02:28:43;;;;;;;14.02;7.55;;;;;;;;;;4988323;28;20041;-77
2023/07/24 02:31:08;;;;;;;15.77;7.53;;;;;;;;;;5001990;28;20038;-76
2023/07/24 02:33:34;;;;;;;13.80;7.47;;;;;;;;;;5001708;28;20089;-78
2023/07/24 02:36:00;;;;;;;13.73;7.03;;;;;;;;;;4980134;28;20050;-76
2023/07/24 02:38:26;;;;;;;16.10;8.27;;;;;;;;;;4983761;28;20278;-77
2023/07/24 02:40:51;;;;;;;15.52;8.45;;;;;;;;;;4985721;28;20118;-76
2023/07/24 02:43:16;;;;;;;12.70;7.53;;;;;;;;;;4986720;28;20466;-77
2023/07/24 02:45:42;;;;;;;14.57;8.43;;;;;;;;;;4986243;28;20629;-76
2023/07/24 02:48:07;;;;;;;14.77;8.30;;;;;;;;;;4985969;28;20019;-78
2023/07/24 02:50:33;;;;;;;13.35;7.95;;;;;;;;;;4986913;28;20034;-77
2023/07/24 02:52:58;;;;;;;15.32;8.25;;;;;;;;;;4987933;28;20038;-76
2023/07/24 02:55:23;;;;;;;15.82;9.10;;;;;;;;;;4984211;28;20212;-77
2023/07/24 02:57:49;;;;;;;12.65;7.88;;;;;;;;;;4988069;28;20027;-78
2023/07/24 03:00:15;;;;;;;14.93;8.43;;;;;;;;;;4986573;28;20514;-76
2023/07/24 03:02:40;;;;;;;14.65;8.25;;;;;;;;;;4989583;28;20043;-77
2023/07/24 03:05:06;;;;;;;11.70;7.28;;;;;;;;;;5002100;28;20261;-77
2023/07/24 03:07:32;;;;;;;16.33;9.30;;;;;;;;;;5000215;28;20057;-76
2023/07/24 03:09:57;;;;;;;16.50;8.45;;;;;;;;;;4996765;28;20065;-77
2023/07/24 03:12:22;;;;;;;16.42;9.13;;;;;;;;;;4986730;28;20038;-77
2023/07/24 03:14:48;;;;;;;15.27;8.38;;;;;;;;;;4986784;28;20172;-77
2023/07/24 03:17:13;;;;;;;14.10;8.07;;;;;;;;;;4988918;28;20030;-77
2023/07/24 03:19:39;;;;;;;14.30;7.80;;;;;;;;;;5001965;28;20041;-79
2023/07/24 03:22:05;;;;;;;17.10;9.07;;;;;;;;;;4979981;28;20042;-77
2023/07/24 03:24:30;;;;;;;18.83;8.40;;;;;;;;;;4989440;28;21498;-78
2023/07/24 03:26:55;;;;;;;15.18;8.30;;;;;;;;;;5002894;28;20464;-78
2023/07/24 03:29:21;;;;;;;14.98;8.55;;;;;;;;;;5000310;28;20266;-77
2023/07/24 03:31:46;;;;;;;14.80;8.02;;;;;;;;;;4986397;28;20034;-76
2023/07/24 03:34:11;;;;;;;13.13;8.32;;;;;;;;;;4999689;28;20050;-77
2023/07/24 03:36:36;;;;;;;13.70;8.20;;;;;;;;;;5002340;28;20026;-77
2023/07/24 03:39:05;;;;;;;17.70;8.63;;;;;;;;;;4986806;28;20039;-79
2023/07/24 03:41:30;;;;;;;12.45;8.32;;;;;;;;;;5003842;28;20364;-79
2023/07/24 03:43:55;;;;;;;17.13;8.68;;;;;;;;;;5001816;28;20030;-79
2023/07/24 03:46:21;;;;;;;15.27;8.60;;;;;;;;;;4986280;28;20034;-79
2023/07/24 03:48:46;;;;;;;15.63;8.18;;;;;;;;;;4988198;28;20494;-79
2023/07/24 03:51:11;;;;;;;15.93;8.15;;;;;;;;;;4983238;28;20025;-78
2023/07/24 03:53:36;;;;;;;14.07;8.45;;;;;;;;;;5000647;28;20058;-78
2023/07/24 03:56:02;;;;;;;14.48;9.15;;;;;;;;;;5001995;28;20098;-79
2023/07/24 03:58:27;;;;;;;15.05;8.50;;;;;;;;;;4987687;28;20047;-79
2023/07/24 04:00:52;;;;;;;14.13;8.27;;;;;;;;;;5005360;28;20042;-78
2023/07/24 04:03:18;;;;;;;15.57;7.53;;;;;;;;;;4999725;28;20022;-79
2023/07/24 04:05:43;;;;;;;12.07;7.72;;;;;;;;;;5003154;28;20390;-79
2023/07/24 04:08:09;;;;;;;16.58;8.77;;;;;;;;;;5006143;28;20042;-79
2023/07/24 04:10:34;;;;;;;14.52;8.63;;;;;;;;;;4988384;28;20042;-78
2023/07/24 04:12:59;;;;;;;13.10;7.70;;;;;;;;;;4986834;28;20049;-78
2023/07/24 04:15:25;;;;;;;16.25;7.63;;;;;;;;;;4988625;28;20038;-78
2023/07/24 04:17:50;;;;;;;14.98;8.05;;;;;;;;;;4990952;28;20023;-79
2023/07/24 04:20:15;;;;;;;13.57;8.63;;;;;;;;;;4987964;28;20185;-79
2023/07/24 04:22:41;;;;;;;14.52;7.80;;;;;;;;;;4989192;28;20396;-79
2023/07/24 04:25:06;;;;;;;13.85;8.05;;;;;;;;;;4989933;28;20034;-79
2023/07/24 04:27:32;;;;;;;16.25;9.50;;;;;;;;;;4989133;28;20030;-80
2023/07/24 04:29:57;;;;;;;13.23;7.75;;;;;;;;;;4990132;28;20014;-80
2023/07/24 04:32:22;;;;;;;15.35;9.05;;;;;;;;;;4990044;28;20033;-79
2023/07/24 04:34:48;;;;;;;13.95;7.82;;;;;;;;;;4987893;28;20126;-79
2023/07/24 04:37:13;;;;;;;15.23;8.00;;;;;;;;;;4999748;28;20054;-79
2023/07/24 04:39:39;;;;;;;17.52;8.73;;;;;;;;;;4987382;28;20034;-78
2023/07/24 04:42:05;;;;;;;12.32;8.50;;;;;;;;;;4989820;28;20090;-79
2023/07/24 04:44:31;;;;;;;14.70;8.98;;;;;;;;;;4990346;28;20112;-79
2023/07/24 04:46:57;;;;;;;15.15;8.95;;;;;;;;;;4987000;28;20049;-79
2023/07/24 04:49:23;;;;;;;14.73;7.88;;;;;;;;;;4982238;28;20038;-80
2023/07/24 04:51:48;;;;;;;15.73;9.45;;;;;;;;;;4982827;28;20503;-80
2023/07/24 04:54:13;;;;;;;13.88;8.90;;;;;;;;;;4982168;28;20034;-78
2023/07/24 04:56:39;;;;;;;15.27;7.30;;;;;;;;;;4985001;28;20105;-78
2023/07/24 04:59:04;;;;;;;12.98;8.40;;;;;;;;;;5000321;28;20061;-77
2023/07/24 05:01:29;;;;;;;13.95;8.45;;;;;;;;;;4986613;28;20061;-78
2023/07/24 05:03:54;;;;;;;12.73;7.60;;;;;;;;;;5000061;28;20058;-78
2023/07/24 05:06:20;;;;;;;17.65;8.45;;;;;;;;;;4999032;28;20030;-77
2023/07/24 05:08:45;;;;;;;18.45;7.90;;;;;;;;;;5001119;28;20086;-78
2023/07/24 05:11:10;;;;;;;12.38;7.45;;;;;;;;;;4987582;28;20031;-78
2023/07/24 05:13:35;;;;;;;12.80;7.72;;;;;;;;;;4987280;28;20503;-78
2023/07/24 05:16:01;;;;;;;11.40;7.40;;;;;;;;;;4991439;28;20058;-78
2023/07/24 05:18:26;;;;;;;11.85;7.20;;;;;;;;;;4989590;28;20037;-78
2023/07/24 05:20:51;;;;;;;13.85;7.50;;;;;;;;;;5003254;28;20030;-78
2023/07/24 05:23:17;;;;;;;15.68;8.90;;;;;;;;;;4988705;28;21003;-78
2023/07/24 05:25:42;;;;;;;12.50;7.18;;;;;;;;;;4990989;28;20038;-78
2023/07/24 05:28:08;;;;;;;12.98;7.28;;;;;;;;;;4987135;28;20027;-78
2023/07/24 05:30:33;;;;;;;13.43;7.63;;;;;;;;;;4984420;28;20038;-78
2023/07/24 05:32:59;;;;;;;17.35;8.13;;;;;;;;;;4983055;28;20034;-78
2023/07/24 05:35:24;;;;;;;14.88;8.13;;;;;;;;;;4985800;28;20038;-78
2023/07/24 05:37:49;;;;;;;15.10;7.95;;;;;;;;;;4999958;28;20550;-77
2023/07/24 05:40:14;;;;;;;12.80;8.05;;;;;;;;;;4984816;28;20034;-78
2023/07/24 05:42:43;;;;;;;13.63;8.02;;;;;;;;;;4983114;28;20038;-78
2023/07/24 05:45:09;;;;;;;12.32;7.68;;;;;;;;;;4986152;28;20030;-77
2023/07/24 05:47:34;;;;;;;13.48;9.38;;;;;;;;;;4987363;28;20093;-77
2023/07/24 05:50:00;;;;;;;13.00;7.10;;;;;;;;;;4986258;28;20038;-77
2023/07/24 05:52:25;;;;;;;14.32;7.40;;;;;;;;;;4976412;28;20037;-77
2023/07/24 05:54:50;;;;;;;13.52;7.05;;;;;;;;;;4979077;28;20038;-77
2023/07/24 05:57:16;;;;;;;12.18;7.38;;;;;;;;;;4981386;28;20076;-77
2023/07/24 05:59:41;;;;;;;12.32;7.50;;;;;;;;;;4978899;28;20026;-77
2023/07/24 06:02:07;;;;;;;11.32;7.97;;;;;;;;;;4975082;28;20105;-77
2023/07/24 06:04:33;;;;;;;12.73;7.30;;;;;;;;;;4983243;28;20046;-78
2023/07/24 06:06:58;;;;;;;11.43;7.15;;;;;;;;;;4979088;28;20101;-78
2023/07/24 06:09:23;;;;;;;14.43;7.07;;;;;;;;;;4984558;28;20070;-77
2023/07/24 06:11:49;;;;;;;11.45;7.47;;;;;;;;;;4979788;28;20030;-78
2023/07/24 06:14:14;;;;;;;11.73;7.45;;;;;;;;;;4975411;28;20062;-77
2023/07/24 06:16:39;;;;;;;15.43;7.15;;;;;;;;;;4935074;28;20037;-77
2023/07/24 06:19:05;;;;;;;13.05;8.65;;;;;;;;;;4925660;28;20059;-78
2023/07/24 06:21:30;;;;;;;12.13;7.35;;;;;;;;;;4974565;28;20042;-77
2023/07/24 06:23:56;;;;;;;13.25;7.65;;;;;;;;;;4978512;28;20038;-77
2023/07/24 06:26:21;;;;;;;10.05;6.25;;;;;;;;;;4981707;28;20046;-77
2023/07/24 06:28:47;;;;;;;14.75;7.22;;;;;;;;;;4975042;28;20038;-78
2023/07/24 06:31:12;;;;;;;10.80;6.97;;;;;;;;;;4980591;28;20042;-77
2023/07/24 06:33:37;;;;;;;12.32;7.53;;;;;;;;;;4995690;28;20070;-78
2023/07/24 06:36:03;;;;;;;9.70;6.43;;;;;;;;;;4974456;28;20023;-78
2023/07/24 06:38:28;;;;;;;10.43;7.25;;;;;;;;;;4975809;28;20026;-78
2023/07/24 06:40:54;;;;;;;12.02;7.20;;;;;;;;;;4990306;28;20096;-77
2023/07/24 06:43:19;;;;;;;15.57;7.13;;;;;;;;;;4974212;28;20050;-78
2023/07/24 06:45:44;;;;;;;9.80;6.88;;;;;;;;;;4989386;28;20030;-78
2023/07/24 06:48:10;;;;;;;10.68;6.80;;;;;;;;;;4974156;28;20050;-77
2023/07/24 06:50:35;;;;;;;10.10;6.93;;;;;;;;;;4976631;28;20077;-77
2023/07/24 06:53:00;;;;;;;10.77;6.80;;;;;;;;;;4978878;28;20031;-77
2023/07/24 06:55:26;;;;;;;12.65;7.68;;;;;;;;;;4979711;28;20038;-77
2023/07/24 06:57:51;;;;;;;18.13;7.57;;;;;;;;;;4977686;28;20042;-77
2023/07/24 07:00:17;;;;;;;16.08;7.10;;;;;;;;;;4979363;28;20526;-77
2023/07/24 07:02:42;;;;;;;11.15;6.80;;;;;;;;;;4982138;28;20030;-78
2023/07/24 07:05:08;;;;;;;10.18;6.35;;;;;;;;;;4981018;28;20069;-80
2023/07/24 07:07:33;;;;;;;12.90;6.10;;;;;;;;;;4985000;28;20045;-79
2023/07/24 07:09:58;;;;;;;11.10;5.70;;;;;;;;;;4993021;28;20115;-78
2023/07/24 07:12:23;;;;;;;9.90;5.70;;;;;;;;;;4980140;28;20089;-78
2023/07/24 07:14:49;;;;;;;9.55;5.25;;;;;;;;;;4977155;28;20030;-78
2023/07/24 07:17:14;;;;;;;5.05;3.60;;;;;;;;;;4973723;28;20089;-78
2023/07/24 07:19:40;;;;;;;4.38;3.35;;;;;;;;;;4977963;28;20034;-78
2023/07/24 07:22:05;;;;;;;5.43;3.33;;;;;;;;;;4980612;28;20034;-78
2023/07/24 07:24:31;;;;;;;3.55;2.70;;;;;;;;;;4990496;28;20096;-78
2023/07/24 07:26:56;;;;;;;4.22;3.00;;;;;;;;;;4977938;28;20029;-78
2023/07/24 07:29:21;;;;;;;5.60;2.60;;;;;;;;;;4977750;28;20463;-77
2023/07/24 07:31:47;;;;;;;5.82;3.42;;;;;;;;;;4977593;28;20031;-77
2023/07/24 07:34:12;;;;;;;4.22;2.65;;;;;;;;;;4977933;28;20134;-77
2023/07/24 07:36:37;;;;;;;3.53;2.40;;;;;;;;;;4974774;28;20402;-77
2023/07/24 07:39:03;;;;;;;4.18;2.67;;;;;;;;;;4977262;28;20034;-78
2023/07/24 07:41:28;;;;;;;3.55;2.60;;;;;;;;;;4981221;28;20531;-78
2023/07/24 07:43:54;;;;;;;3.85;2.70;;;;;;;;;;4977164;28;20534;-79
2023/07/24 07:46:19;;;;;;;5.03;3.08;;;;;;;;;;4978992;28;20491;-79
2023/07/24 07:48:46;;;;;;;5.15;3.30;;;;;;;;;;4983359;28;20089;-78
2023/07/24 07:51:11;;;;;;;4.22;2.88;;;;;;;;;;4995415;28;20038;-78
2023/07/24 07:53:38;;;;;;;4.28;3.10;;;;;;;;;;4977801;28;20090;-78
2023/07/24 07:56:03;;;;;;;3.30;2.63;;;;;;;;;;4980680;28;20133;-79
2023/07/24 07:58:29;;;;;;;3.72;2.58;;;;;;;;;;4995721;28;20479;-79
2023/07/24 08:00:54;;;;;;;3.15;2.55;;;;;;;;;;4982195;28;20399;-79
2023/07/24 08:03:20;;;;;;;4.28;2.95;;;;;;;;;;4980776;28;20019;-79
2023/07/24 08:05:45;;;;;;;4.00;3.05;;;;;;;;;;4978451;28;20037;-79
2023/07/24 08:08:10;;;;;;;4.75;2.53;;;;;;;;;;4976805;28;20035;-78
2023/07/24 08:10:39;;;;;;;3.78;3.03;;;;;;;;;;4975056;28;20038;-78
2023/07/24 08:13:07;;;;;;;3.70;2.70;;;;;;;;;;4963090;28;20530;-78
2023/07/24 08:15:36;;;;;;;4.30;3.13;;;;;;;;;;4971399;28;20049;-78
2023/07/24 08:18:03;;;;;;;6.28;3.05;;;;;;;;;;4985843;28;20038;-78
2023/07/24 08:20:28;;;;;;;4.03;3.10;;;;;;;;;;4971694;28;20581;-78
2023/07/24 08:22:54;;;;;;;4.50;3.30;;;;;;;;;;4976946;28;20133;-79
2023/07/24 08:25:19;;;;;;;3.22;2.88;;;;;;;;;;4975034;28;20045;-79
2023/07/24 08:27:44;;;;;;;3.95;3.30;;;;;;;;;;4968463;28;20037;-79
2023/07/24 08:30:10;;;;;;;4.32;3.28;;;;;;;;;;4891439;28;20115;-78
2023/07/24 08:32:36;;;;;;;4.93;3.40;;;;;;;;;;4972509;28;20042;-77
2023/07/24 08:35:01;;;;;;;5.10;3.38;;;;;;;;;;4971794;28;20042;-78
2023/07/24 08:37:26;;;;;;;5.03;3.80;;;;;;;;;;4973213;28;20038;-78
2023/07/24 08:39:51;;;;;;;6.03;3.55;;;;;;;;;;4971673;28;20355;-78
2023/07/24 08:42:17;;;;;;;6.15;3.67;;;;;;;;;;4969950;28;20022;-78
2023/07/24 08:44:43;;;;;;;4.82;3.42;;;;;;;;;;4969575;28;20114;-78
2023/07/24 08:47:11;;;;;;;4.68;3.03;;;;;;;;;;4974562;28;20045;-78
2023/07/24 08:49:40;;;;;;;4.43;3.63;;;;;;;;;;4981553;28;20500;-78
2023/07/24 08:52:05;;;;;;;7.65;3.75;;;;;;;;;;4980659;28;20034;-78
2023/07/24 08:54:33;;;;;;;4.22;3.45;;;;;;;;;;4982786;28;20426;-78
2023/07/24 08:56:59;;;;;;;5.60;3.53;;;;;;;;;;4977909;28;20041;-79
2023/07/24 08:59:25;;;;;;;4.25;3.22;;;;;;;;;;4982106;28;20034;-77
2023/07/24 09:01:50;;;;;;;3.53;3.22;;;;;;;;;;4975182;28;20542;-77
2023/07/24 09:04:15;;;;;;;6.15;3.35;;;;;;;;;;4977690;28;20046;-77
2023/07/24 09:06:41;;;;;;;4.22;3.60;;;;;;;;;;4978142;28;20046;-77
2023/07/24 09:09:14;;;;;;;4.25;3.40;;;;;;;;;;4982596;28;20025;-77
2023/07/24 09:11:49;;;;;;;3.85;3.38;;;;;;;;;;4978814;28;20031;-77
2023/07/24 09:14:26;;;;;;;7.80;3.70;;;;;;;;;;4980737;28;20511;-76
2023/07/24 09:17:09;;;;;;;3.97;3.58;;;;;;;;;;4977993;28;20042;-76
2023/07/24 09:19:35;;;;;;;5.30;3.17;;;;;;;;;;4978626;28;20423;-77
2023/07/24 09:22:15;;;;;;;4.53;3.25;;;;;;;;;;4976959;28;20046;-76
2023/07/24 09:24:54;;;;;;;4.18;3.30;;;;;;;;;;4977048;28;20042;-76
2023/07/24 09:27:19;;;;;;;3.30;2.97;;;;;;;;;;4977712;28;20026;-76
2023/07/24 09:29:45;;;;;;;3.50;3.10;;;;;;;;;;4975244;28;20080;-76
2023/07/24 09:32:21;;;;;;;4.53;3.40;;;;;;;;;;4973096;28;20057;-76
2023/07/24 09:34:47;;;;;;;10.10;3.85;;;;;;;;;;4981571;28;20598;-76
2023/07/24 09:37:32;;;;;;;5.18;3.55;;;;;;;;;;4978188;28;20134;-76
2023/07/24 09:39:58;;;;;;;5.82;3.50;;;;;;;;;;4978481;28;20506;-76
2023/07/24 09:42:33;;;;;;;4.43;3.22;;;;;;;;;;4979866;28;20093;-76
2023/07/24 09:45:00;;;;;;;7.07;3.17;;;;;;;;;;4979175;28;20477;-76
2023/07/24 09:47:26;;;;;;;6.05;3.47;;;;;;;;;;4979854;28;20491;-76
2023/07/24 09:49:53;;;;;;;5.10;3.17;;;;;;;;;;4979962;28;20048;-76
2023/07/24 09:52:19;;;;;;;4.15;3.05;;;;;;;;;;4980596;28;20480;-77
2023/07/24 09:54:59;;;;;;;3.70;2.97;;;;;;;;;;4978685;28;20534;-77
2023/07/24 09:57:26;;;;;;;4.32;3.40;;;;;;;;;;4995208;28;20137;-76
2023/07/24 09:59:53;;;;;;;4.95;3.40;;;;;;;;;;4981149;28;20027;-77
2023/07/24 10:02:19;;;;;;;4.47;3.35;;;;;;;;;;4979840;28;20026;-76
2023/07/24 10:04:45;;;;;;;3.67;2.95;;;;;;;;;;4996276;28;20050;-77
2023/07/24 10:07:11;;;;;;;6.68;3.58;;;;;;;;;;4980054;28;20039;-77
2023/07/24 10:09:39;;;;;;;6.78;3.53;;;;;;;;;;4982365;28;20053;-77
2023/07/24 10:12:05;;;;;;;3.83;2.97;;;;;;;;;;4973604;28;20513;-77
2023/07/24 10:14:31;;;;;;;6.63;3.50;;;;;;;;;;4972729;28;20062;-77
2023/07/24 10:16:56;;;;;;;4.80;3.58;;;;;;;;;;4974731;28;20113;-77
2023/07/24 10:19:22;;;;;;;3.50;3.20;;;;;;;;;;4976516;28;20054;-77
2023/07/24 10:21:48;;;;;;;4.85;3.70;;;;;;;;;;4972911;28;20521;-77
2023/07/24 10:24:17;;;;;;;4.43;3.30;;;;;;;;;;4979005;28;20074;-77
2023/07/24 10:26:42;;;;;;;3.60;3.28;;;;;;;;;;4973491;28;20045;-76
2023/07/24 10:29:09;;;;;;;4.50;3.80;;;;;;;;;;4970879;28;20039;-77
2023/07/24 10:31:35;;;;;;;6.90;4.18;;;;;;;;;;4972643;28;20069;-77
2023/07/24 10:34:05;;;;;;;5.13;3.85;;;;;;;;;;4977631;28;20510;-77
2023/07/24 10:36:34;;;;;;;4.72;3.50;;;;;;;;;;4973522;28;20042;-77
2023/07/24 10:39:01;;;;;;;7.35;4.22;;;;;;;;;;4975214;28;20050;-77
2023/07/24 10:41:37;;;;;;;4.80;3.70;;;;;;;;;;4976649;28;20037;-77
2023/07/24 10:44:02;;;;;;;5.40;4.28;;;;;;;;;;4978348;28;20118;-76
2023/07/24 10:46:39;;;;;;;7.35;4.65;;;;;;;;;;4973642;28;20104;-77
2023/07/24 10:49:06;;;;;;;6.75;4.78;;;;;;;;;;4974730;28;20047;-77
2023/07/24 10:51:37;;;;;;;6.68;5.05;;;;;;;;;;4973469;28;20041;-77
2023/07/24 10:54:02;;;;;;;10.15;5.45;;;;;;;;;;4969910;28;20034;-77
2023/07/24 10:56:28;;;;;;;8.80;5.72;;;;;;;;;;4975749;28;20039;-77
2023/07/24 10:58:54;;;;;;;8.73;5.63;;;;;;;;;;4966591;28;20069;-77
2023/07/24 11:01:19;;;;;;;9.50;5.25;;;;;;;;;;4974180;28;20061;-77
2023/07/24 11:03:45;;;;;;;7.00;5.22;;;;;;;;;;4968353;28;20080;-77
2023/07/24 11:06:18;;;;;;;7.68;5.35;;;;;;;;;;4973846;28;20041;-77
2023/07/24 11:08:58;;;;;;;6.63;4.88;;;;;;;;;;4992952;28;20114;-77
2023/07/24 11:11:31;;;;;;;9.85;5.45;;;;;;;;;;4979204;28;20046;-77
2023/07/24 11:13:56;;;;;;;8.45;4.95;;;;;;;;;;4977175;28;20525;-78
2023/07/24 11:16:22;;;;;;;7.70;5.50;;;;;;;;;;4977599;28;20034;-77
2023/07/24 11:18:49;;;;;;;7.88;5.22;;;;;;;;;;4975797;28;20061;-77
2023/07/24 11:21:16;;;;;;;6.40;5.53;;;;;;;;;;4976296;28;20490;-77
2023/07/24 11:23:53;;;;;;;8.60;5.53;;;;;;;;;;4978703;28;20034;-77
2023/07/24 11:26:22;;;;;;;7.60;5.00;;;;;;;;;;4979221;28;20038;-77
2023/07/24 11:28:52;;;;;;;8.23;4.75;;;;;;;;;;4978425;28;20046;-77
2023/07/24 11:31:20;;;;;;;8.55;5.18;;;;;;;;;;4977798;28;20038;-77
2023/07/24 11:33:47;;;;;;;8.07;4.88;;;;;;;;;;4994501;28;20041;-77
2023/07/24 11:36:14;;;;;;;6.40;4.95;;;;;;;;;;4972473;28;20037;-77
2023/07/24 11:38:39;;;;;;;6.32;4.80;;;;;;;;;;4979157;28;20502;-77
2023/07/24 11:41:05;;;;;;;8.73;5.25;;;;;;;;;;4973492;28;20038;-77
2023/07/24 11:43:30;;;;;;;7.53;4.78;;;;;;;;;;4985157;28;20039;-77
2023/07/24 11:45:56;;;;;;;7.05;4.78;;;;;;;;;;4988216;28;20050;-77
2023/07/24 11:48:23;;;;;;;7.32;5.25;;;;;;;;;;5006011;28;20030;-79
2023/07/24 11:50:50;;;;;;;10.02;5.65;;;;;;;;;;4976057;28;20043;-77
2023/07/24 11:53:31;;;;;;;9.05;5.60;;;;;;;;;;4975800;28;20058;-79
2023/07/24 11:55:58;;;;;;;6.50;4.63;;;;;;;;;;4977680;28;21025;-79
2023/07/24 11:58:27;;;;;;;8.43;5.30;;;;;;;;;;4973614;28;20034;-78
2023/07/24 12:00:54;;;;;;;9.30;5.10;;;;;;;;;;4971529;28;20129;-78
2023/07/24 12:03:21;;;;;;;6.07;4.93;;;;;;;;;;4976829;28;20031;-78
2023/07/24 12:05:47;;;;;;;9.55;5.47;;;;;;;;;;4975094;28;20030;-78
2023/07/24 12:08:14;;;;;;;6.70;4.50;;;;;;;;;;4975914;28;20505;-78
2023/07/24 12:10:40;;;;;;;8.82;4.97;;;;;;;;;;4976440;28;20054;-78
2023/07/24 12:13:06;;;;;;;6.40;5.00;;;;;;;;;;4975094;28;20033;-78
2023/07/24 12:15:33;;;;;;;7.13;4.53;;;;;;;;;;4975070;28;20039;-78
2023/07/24 12:17:59;;;;;;;10.38;4.93;;;;;;;;;;4974110;28;20030;-78
2023/07/24 12:20:24;;;;;;;8.93;4.13;;;;;;;;;;4972149;28;20042;-78
2023/07/24 12:22:50;;;;;;;5.10;3.95;;;;;;;;;;4978398;28;20041;-78
2023/07/24 12:25:16;;;;;;;9.38;3.50;;;;;;;;;;4974479;28;20495;-78
2023/07/24 12:27:42;;;;;;;6.28;3.28;;;;;;;;;;4982009;28;20041;-79
2023/07/24 12:30:08;;;;;;;6.28;3.97;;;;;;;;;;4978879;28;20081;-78
2023/07/24 12:32:34;;;;;;;7.55;4.72;;;;;;;;;;4975622;28;20686;-78
2023/07/24 12:34:59;;;;;;;9.85;5.90;;;;;;;;;;4996043;28;20046;-79
2023/07/24 12:37:24;;;;;;;7.90;5.60;;;;;;;;;;4990881;28;20042;-78
2023/07/24 12:39:50;;;;;;;16.52;5.95;;;;;;;;;;4976247;28;20090;-79
2023/07/24 12:42:16;;;;;;;6.50;4.60;;;;;;;;;;4993446;28;20481;-79
2023/07/24 12:44:42;;;;;;;8.20;4.90;;;;;;;;;;4984832;28;20026;-80
2023/07/24 12:47:08;;;;;;;7.93;4.32;;;;;;;;;;4983013;28;20043;-80
2023/07/24 12:49:33;;;;;;;7.38;4.40;;;;;;;;;;4990627;28;20105;-80
2023/07/24 12:51:59;;;;;;;4.47;2.80;;;;;;;;;;4978438;28;20513;-79
2023/07/24 12:54:24;;;;;;;3.20;2.90;;;;;;;;;;4992240;28;20050;-80
2023/07/24 12:56:50;;;;;;;4.90;3.25;;;;;;;;;;4978501;28;20034;-80
2023/07/24 12:59:17;;;;;;;4.25;2.90;;;;;;;;;;4982678;28;20070;-79
2023/07/24 13:01:42;;;;;;;3.88;2.80;;;;;;;;;;4979949;28;20057;-80
2023/07/24 13:04:08;;;;;;;4.35;2.92;;;;;;;;;;4977342;28;20038;-79
2023/07/24 13:06:33;;;;;;;3.80;2.70;;;;;;;;;;4993465;28;20035;-78
2023/07/24 13:08:58;;;;;;;3.80;2.78;;;;;;;;;;4996835;28;20030;-78
2023/07/24 13:11:24;;;;;;;4.15;2.65;;;;;;;;;;4991539;28;20052;-79
2023/07/24 13:13:50;;;;;;;3.55;2.65;;;;;;;;;;4981646;28;20081;-79
2023/07/24 13:16:16;;;;;;;3.40;2.42;;;;;;;;;;4976794;28;20118;-80
2023/07/24 13:18:41;;;;;;;6.25;2.60;;;;;;;;;;4980106;28;20046;-80
2023/07/24 13:21:07;;;;;;;4.32;2.92;;;;;;;;;;4994894;28;20034;-80
2023/07/24 13:23:33;;;;;;;4.78;2.20;;;;;;;;;;4992259;28;20117;-80
2023/07/24 13:25:58;;;;;;;3.30;2.42;;;;;;;;;;4975027;28;20130;-80
2023/07/24 13:28:23;;;;;;;3.53;2.53;;;;;;;;;;4974366;28;20084;-79
2023/07/24 13:30:49;;;;;;;3.17;2.72;;;;;;;;;;4991183;28;20035;-79
2023/07/24 13:33:14;;;;;;;5.22;2.28;;;;;;;;;;4979360;28;20023;-78
2023/07/24 13:35:39;;;;;;;2.95;2.00;;;;;;;;;;4970174;28;20022;-79
2023/07/24 13:38:04;;;;;;;3.47;2.40;;;;;;;;;;4975368;28;20053;-78
2023/07/24 13:40:30;;;;;;;3.55;2.45;;;;;;;;;;4974354;28;20042;-78
2023/07/24 13:42:55;;;;;;;3.22;2.58;;;;;;;;;;4976229;28;20149;-78
2023/07/24 13:45:21;;;;;;;2.92;2.50;;;;;;;;;;4981206;28;20026;-78
2023/07/24 13:47:46;;;;;;;2.63;2.30;;;;;;;;;;4975280;28;20022;-79
2023/07/24 13:50:11;;;;;;;4.90;2.53;;;;;;;;;;4972414;28;20046;-79
2023/07/24 13:52:37;;;;;;;3.83;2.50;;;;;;;;;;4975807;28;20037;-79
2023/07/24 13:55:03;;;;;;;3.45;2.50;;;;;;;;;;4976861;28;20031;-79
2023/07/24 13:57:28;;;;;;;2.80;2.40;;;;;;;;;;4969485;28;20038;-79
2023/07/24 13:59:53;;;;;;;3.15;2.33;;;;;;;;;;4974077;28;20060;-78
2023/07/24 14:02:19;;;;;;;2.85;2.58;;;;;;;;;;4973031;28;20093;-79
2023/07/24 14:04:44;;;;;;;4.00;2.42;;;;;;;;;;4973455;28;20049;-78
2023/07/24 14:07:10;;;;;;;4.18;2.95;;;;;;;;;;4976744;28;20038;-78
2023/07/24 14:09:36;;;;;;;3.65;2.55;;;;;;;;;;4973203;28;20545;-79
2023/07/24 14:12:01;;;;;;;3.53;2.85;;;;;;;;;;4980421;28;20022;-78
2023/07/24 14:14:26;;;;;;;3.13;2.53;;;;;;;;;;4974131;28;20046;-78
2023/07/24 14:16:52;;;;;;;2.60;2.40;;;;;;;;;;4973116;28;20038;-78
2023/07/24 14:19:17;;;;;;;2.95;2.60;;;;;;;;;;4977029;28;20046;-77
2023/07/24 14:21:43;;;;;;;3.58;2.88;;;;;;;;;;4974929;28;20573;-77
2023/07/24 14:24:09;;;;;;;4.05;3.00;;;;;;;;;;4992050;28;20383;-77
2023/07/24 14:26:36;;;;;;;3.38;2.53;;;;;;;;;;4990193;28;20039;-77
2023/07/24 14:29:02;;;;;;;2.63;2.42;;;;;;;;;;4972326;28;20035;-77
2023/07/24 14:31:28;;;;;;;4.80;2.80;;;;;;;;;;4974956;28;20041;-77